Time;durP1;ratioP1;P1;durP2;ratioP2;P2;SDS_P1;SDS_P2;PMS_P1;PMS_P2;Temp;Humidity;BMP_temperature;BMP_pressure;BME280_temperature;BME280_humidity;BME280_pressure;Samples;Min_cycle;Max_cycle;Signal;HPM_P1;HPM_P2
2021/01/03 00:01:09;;;;;;;10.70;8.37;;;2.20;99.90;;;;;;5068532;28;21160;-71
2021/01/03 00:03:36;;;;;;;10.33;8.37;;;2.20;99.90;;;;;;5069366;28;20554;-72
2021/01/03 00:06:02;;;;;;;7.60;6.87;;;2.20;99.90;;;;;;5068265;28;20479;-72
2021/01/03 00:08:29;;;;;;;10.37;7.33;;;2.20;99.90;;;;;;5069881;28;20486;-73
2021/01/03 00:10:55;;;;;;;8.90;7.57;;;2.20;99.90;;;;;;5070793;28;20554;-72
2021/01/03 00:13:22;;;;;;;10.23;7.67;;;2.20;99.90;;;;;;5049513;28;20824;-72
2021/01/03 00:15:48;;;;;;;12.00;7.30;;;2.20;99.90;;;;;;5047255;28;20463;-72
2021/01/03 00:18:16;;;;;;;12.53;8.10;;;2.10;99.90;;;;;;5068026;28;20478;-72
2021/01/03 00:20:42;;;;;;;10.43;7.20;;;2.10;99.90;;;;;;5069224;28;20523;-72
2021/01/03 00:23:08;;;;;;;8.20;7.10;;;2.10;99.90;;;;;;5065535;28;20492;-72
2021/01/03 00:25:35;;;;;;;11.50;7.73;;;2.10;99.90;;;;;;5063930;28;20609;-73
2021/01/03 00:28:01;;;;;;;9.90;7.33;;;2.20;99.90;;;;;;5069262;28;20486;-72
2021/01/03 00:30:29;;;;;;;10.73;7.47;;;2.10;99.90;;;;;;5070889;28;20554;-73
2021/01/03 00:32:57;;;;;;;11.50;8.27;;;2.10;99.90;;;;;;5056481;28;20543;-73
2021/01/03 00:35:28;;;;;;;11.17;7.73;;;2.10;99.90;;;;;;5056601;28;20495;-73
2021/01/03 00:37:58;;;;;;;9.93;7.10;;;2.10;99.90;;;;;;5068621;28;20482;-73
2021/01/03 00:40:25;;;;;;;8.80;7.90;;;2.10;99.90;;;;;;5072470;28;20514;-73
2021/01/03 00:42:51;;;;;;;10.10;7.07;;;2.10;99.90;;;;;;5051942;28;20516;-73
2021/01/03 00:45:18;;;;;;;9.27;7.00;;;2.10;99.90;;;;;;5070767;28;20468;-73
2021/01/03 00:47:44;;;;;;;11.20;7.47;;;2.10;99.90;;;;;;5064743;28;20492;-73
2021/01/03 00:50:13;;;;;;;10.83;7.97;;;2.10;99.90;;;;;;5061866;28;20537;-73
2021/01/03 00:52:40;;;;;;;14.63;9.20;;;2.10;99.90;;;;;;5063010;28;20822;-73
2021/01/03 00:55:09;;;;;;;9.83;7.20;;;2.10;99.90;;;;;;5062781;28;20450;-72
2021/01/03 00:57:35;;;;;;;10.93;8.27;;;2.10;99.90;;;;;;5068295;28;20542;-72
2021/01/03 01:00:06;;;;;;;9.97;7.80;;;2.10;99.90;;;;;;5063751;28;20570;-73
2021/01/03 01:02:32;;;;;;;10.17;7.33;;;2.10;99.90;;;;;;5069332;28;20475;-73
2021/01/03 01:04:59;;;;;;;12.10;8.50;;;2.10;99.90;;;;;;5063320;28;20446;-73
2021/01/03 01:07:25;;;;;;;8.83;7.93;;;2.10;99.90;;;;;;5068275;28;20486;-72
2021/01/03 01:09:52;;;;;;;8.90;6.77;;;2.10;99.90;;;;;;5058516;28;20459;-73
2021/01/03 01:12:19;;;;;;;11.20;7.47;;;2.10;99.90;;;;;;5059838;28;20488;-73
2021/01/03 01:14:45;;;;;;;11.07;8.67;;;2.10;99.90;;;;;;5065327;28;20526;-72
2021/01/03 01:17:11;;;;;;;12.77;7.90;;;2.10;99.90;;;;;;5048601;28;20576;-72
2021/01/03 01:19:38;;;;;;;10.53;7.77;;;2.10;99.90;;;;;;5054402;28;20486;-72
2021/01/03 01:22:04;;;;;;;11.00;8.30;;;2.10;99.90;;;;;;5063648;28;20554;-72
2021/01/03 01:24:30;;;;;;;11.07;8.17;;;2.10;99.90;;;;;;5052871;28;20501;-71
2021/01/03 01:26:58;;;;;;;12.53;7.53;;;2.10;99.90;;;;;;5059519;28;20557;-71
2021/01/03 01:29:24;;;;;;;12.20;9.10;;;2.10;99.90;;;;;;5055000;28;20480;-72
2021/01/03 01:31:50;;;;;;;10.93;8.37;;;2.10;99.90;;;;;;5053165;28;20983;-72
2021/01/03 01:34:17;;;;;;;11.63;8.13;;;2.10;99.90;;;;;;5067113;28;20462;-72
2021/01/03 01:36:43;;;;;;;9.80;7.80;;;2.00;99.90;;;;;;5065401;28;20541;-72
2021/01/03 01:39:10;;;;;;;11.20;8.90;;;2.00;99.90;;;;;;5067133;28;20522;-71
2021/01/03 01:41:36;;;;;;;11.73;8.37;;;2.00;99.90;;;;;;5062950;28;20522;-71
2021/01/03 01:44:03;;;;;;;10.90;8.37;;;2.00;99.90;;;;;;5068703;28;20439;-71
2021/01/03 01:46:32;;;;;;;14.50;8.60;;;2.00;99.90;;;;;;5049891;28;20447;-71
2021/01/03 01:48:59;;;;;;;10.30;8.40;;;2.00;99.90;;;;;;5058784;28;20543;-75
2021/01/03 01:51:29;;;;;;;11.70;8.17;;;2.00;99.90;;;;;;5063931;28;20494;-71
2021/01/03 01:54:00;;;;;;;13.30;10.57;;;2.00;99.90;;;;;;5070188;28;20451;-71
2021/01/03 01:56:32;;;;;;;12.00;8.97;;;2.00;99.90;;;;;;5069856;28;20459;-71
2021/01/03 01:59:05;;;;;;;14.13;10.73;;;2.00;99.90;;;;;;5075091;28;20533;-71
2021/01/03 02:01:38;;;;;;;12.70;9.67;;;1.90;99.90;;;;;;5060515;28;20543;-72
2021/01/03 02:04:12;;;;;;;13.40;9.37;;;1.80;99.90;;;;;;5050960;28;20459;-71
2021/01/03 02:06:43;;;;;;;15.10;10.50;;;1.80;99.90;;;;;;5066400;28;20833;-72
2021/01/03 02:09:14;;;;;;;15.47;10.00;;;1.80;99.90;;;;;;5066096;28;20458;-71
2021/01/03 02:11:41;;;;;;;12.23;10.60;;;1.70;99.90;;;;;;5067703;28;20483;-71
2021/01/03 02:14:09;;;;;;;13.00;11.10;;;1.70;99.90;;;;;;5070001;28;20451;-71
2021/01/03 02:16:38;;;;;;;16.40;11.60;;;1.70;99.90;;;;;;5068705;28;20486;-71
2021/01/03 02:19:11;;;;;;;14.53;11.50;;;1.70;99.90;;;;;;5058425;28;20495;-71
2021/01/03 02:21:44;;;;;;;17.47;11.77;;;1.60;99.90;;;;;;5068660;28;20553;-71
2021/01/03 02:24:18;;;;;;;13.43;10.60;;;1.60;99.90;;;;;;5063317;28;20806;-72
2021/01/03 02:26:49;;;;;;;15.20;12.30;;;1.60;99.90;;;;;;5055701;28;20534;-72
2021/01/03 02:29:20;;;;;;;15.20;11.20;;;1.50;99.90;;;;;;5067826;28;20446;-71
2021/01/03 02:31:49;;;;;;;19.73;13.17;;;1.50;99.90;;;;;;5070183;28;20548;-71
2021/01/03 02:34:21;;;;;;;17.13;12.93;;;1.40;99.90;;;;;;5070365;28;20550;-71
2021/01/03 02:36:51;;;;;;;19.67;13.90;;;1.40;99.90;;;;;;5069735;28;20545;-71
2021/01/03 02:39:27;;;;;;;21.17;14.60;;;1.40;99.90;;;;;;5070054;28;21078;-71
2021/01/03 02:41:56;;;;;;;14.13;12.07;;;1.40;99.90;;;;;;5070061;28;21005;-71
2021/01/03 02:44:23;;;;;;;18.50;14.00;;;1.40;99.90;;;;;;5070358;28;20530;-71
2021/01/03 02:46:51;;;;;;;19.57;14.13;;;1.40;99.90;;;;;;5069828;28;20537;-71
2021/01/03 02:49:18;;;;;;;18.97;13.53;;;1.30;99.90;;;;;;5069933;28;20435;-71
2021/01/03 02:51:44;;;;;;;20.00;13.70;;;1.30;99.90;;;;;;5069232;28;20554;-71
2021/01/03 02:54:10;;;;;;;25.50;16.93;;;1.30;99.90;;;;;;5069920;28;20533;-71
2021/01/03 02:56:37;;;;;;;19.67;14.47;;;1.30;99.90;;;;;;5069177;28;20449;-71
2021/01/03 02:59:05;;;;;;;19.70;14.17;;;1.30;99.90;;;;;;5069967;28;20447;-71
2021/01/03 03:01:31;;;;;;;21.63;14.37;;;1.20;99.90;;;;;;5069876;28;20558;-71
2021/01/03 03:03:58;;;;;;;19.70;15.00;;;1.20;99.90;;;;;;5069872;28;21027;-72
2021/01/03 03:06:24;;;;;;;20.10;15.43;;;1.20;99.90;;;;;;5061765;28;20551;-71
2021/01/03 03:08:50;;;;;;;23.67;15.77;;;1.20;99.90;;;;;;5052153;28;21224;-71
2021/01/03 03:11:17;;;;;;;20.20;14.70;;;1.20;99.90;;;;;;5068442;28;20467;-71
2021/01/03 03:13:43;;;;;;;22.10;16.47;;;1.20;99.90;;;;;;5069570;28;20573;-71
2021/01/03 03:16:10;;;;;;;21.80;16.00;;;1.10;99.90;;;;;;5068669;28;20531;-71
2021/01/03 03:18:37;;;;;;;23.73;15.57;;;1.10;99.90;;;;;;5069526;28;20569;-71
2021/01/03 03:21:03;;;;;;;21.00;16.00;;;1.10;99.90;;;;;;5069160;28;20566;-72
2021/01/03 03:23:29;;;;;;;24.67;16.60;;;1.10;99.90;;;;;;5068279;28;20807;-71
2021/01/03 03:25:56;;;;;;;21.67;15.10;;;1.10;99.90;;;;;;5068144;28;20449;-71
2021/01/03 03:28:22;;;;;;;21.93;16.37;;;1.10;99.90;;;;;;5068929;28;20542;-71
2021/01/03 03:30:49;;;;;;;21.87;16.23;;;1.10;99.90;;;;;;5069229;28;20965;-71
2021/01/03 03:33:16;;;;;;;25.23;16.87;;;1.10;99.90;;;;;;5069455;28;20451;-71
2021/01/03 03:35:44;;;;;;;24.30;15.67;;;1.10;99.90;;;;;;5068525;28;21109;-71
2021/01/03 03:38:10;;;;;;;22.77;17.10;;;1.10;99.90;;;;;;5069012;28;20454;-72
2021/01/03 03:40:39;;;;;;;24.67;17.57;;;1.10;99.90;;;;;;5068743;28;20586;-71
2021/01/03 03:43:07;;;;;;;27.70;17.27;;;1.10;99.90;;;;;;5068870;28;20558;-71
2021/01/03 03:45:33;;;;;;;28.17;19.95;;;1.10;99.90;;;;;;5068248;28;20450;-71
2021/01/03 03:48:00;;;;;;;24.67;18.27;;;1.10;99.90;;;;;;5068411;28;20240;-72
2021/01/03 03:50:27;;;;;;;24.80;17.70;;;1.00;99.90;;;;;;5068862;28;20467;-72
2021/01/03 03:52:53;;;;;;;27.33;18.00;;;1.00;99.90;;;;;;5069068;28;20530;-72
2021/01/03 03:55:20;;;;;;;25.00;17.80;;;1.00;99.90;;;;;;5068978;28;20491;-72
2021/01/03 03:57:46;;;;;;;27.30;18.80;;;1.10;99.90;;;;;;5068267;28;20455;-72
2021/01/03 04:00:16;;;;;;;27.17;18.30;;;1.00;99.90;;;;;;5068877;28;20482;-72
2021/01/03 04:02:43;;;;;;;25.47;18.30;;;1.00;99.90;;;;;;5069213;28;20457;-72
2021/01/03 04:05:12;;;;;;;26.60;17.43;;;1.00;99.90;;;;;;5069066;28;21042;-73
2021/01/03 04:07:39;;;;;;;25.43;17.60;;;1.10;99.90;;;;;;5069619;28;20443;-73
2021/01/03 04:10:07;;;;;;;26.53;18.83;;;1.10;99.90;;;;;;5070162;28;20538;-72
2021/01/03 04:12:34;;;;;;;24.13;17.80;;;1.10;99.90;;;;;;5069802;28;20457;-72
2021/01/03 04:15:01;;;;;;;27.93;18.67;;;1.10;99.90;;;;;;5070985;28;20545;-72
2021/01/03 04:17:27;;;;;;;23.87;17.93;;;1.10;99.90;;;;;;5069604;28;20926;-72
2021/01/03 04:19:53;;;;;;;30.60;19.00;;;1.00;99.90;;;;;;5068996;28;20570;-72
2021/01/03 04:22:20;;;;;;;27.60;18.10;;;1.00;99.90;;;;;;5068965;28;20475;-72
2021/01/03 04:24:47;;;;;;;28.00;17.40;;;1.10;99.90;;;;;;5069024;28;20886;-72
2021/01/03 04:27:13;;;;;;;24.50;18.07;;;1.00;99.90;;;;;;5068030;28;20451;-72
2021/01/03 04:29:41;;;;;;;28.57;19.53;;;1.00;99.90;;;;;;5068935;28;20534;-72
2021/01/03 04:32:10;;;;;;;24.83;18.17;;;1.00;99.90;;;;;;5068799;28;20815;-72
2021/01/03 04:34:38;;;;;;;28.60;19.00;;;1.00;99.90;;;;;;5068778;28;20545;-72
2021/01/03 04:37:04;;;;;;;25.80;18.27;;;1.00;99.90;;;;;;5068929;28;20855;-72
2021/01/03 04:39:31;;;;;;;28.30;17.50;;;1.00;99.90;;;;;;5069175;28;21202;-72
2021/01/03 04:42:01;;;;;;;27.80;19.37;;;1.00;99.90;;;;;;5066196;28;20478;-72
2021/01/03 04:44:33;;;;;;;27.70;18.67;;;1.00;99.90;;;;;;5067872;28;20539;-72
2021/01/03 04:47:04;;;;;;;25.40;19.17;;;1.10;99.90;;;;;;5068260;28;20461;-72
2021/01/03 04:49:38;;;;;;;22.80;15.83;;;1.10;99.90;;;;;;5069170;28;20449;-72
2021/01/03 04:52:52;;;;;;;26.57;18.77;;;1.10;99.90;;;;;;5069085;28;20466;-72
2021/01/03 04:55:21;;;;;;;30.10;17.70;;;1.10;99.90;;;;;;4967587;28;20458;-72
2021/01/03 04:58:01;;;;;;;27.50;18.80;;;1.00;99.90;;;;;;5057858;28;20480;-72
2021/01/03 05:00:33;;;;;;;24.97;18.60;;;1.00;99.90;;;;;;5068553;28;20494;-72
2021/01/03 05:03:36;;;;;;;25.10;17.03;;;1.00;99.90;;;;;;5070043;28;21205;-72
2021/01/03 05:06:07;;;;;;;27.43;17.50;;;1.00;99.90;;;;;;5069889;28;20474;-72
2021/01/03 05:08:38;;;;;;;24.97;17.40;;;1.00;99.90;;;;;;5070144;28;20838;-72
2021/01/03 05:11:09;;;;;;;24.67;17.70;;;1.00;99.90;;;;;;5069222;28;20473;-72
2021/01/03 05:13:54;;;;;;;28.83;19.20;;;1.00;99.90;;;;;;5069418;28;20488;-72
2021/01/03 05:16:22;;;;;;;27.60;18.43;;;1.00;99.90;;;;;;5071457;28;20435;-72
2021/01/03 05:18:48;;;;;;;25.07;17.10;;;0.90;99.90;;;;;;5071948;28;20453;-72
2021/01/03 05:21:15;;;;;;;26.73;17.63;;;1.00;99.90;;;;;;5072401;28;20639;-72
2021/01/03 05:23:58;;;;;;;27.60;18.33;;;1.00;99.90;;;;;;5072671;28;20457;-72
2021/01/03 05:26:30;;;;;;;26.73;17.50;;;1.00;99.90;;;;;;5071482;28;20443;-72
2021/01/03 05:28:57;;;;;;;27.23;18.43;;;1.00;99.90;;;;;;5072049;28;20447;-71
2021/01/03 05:31:25;;;;;;;25.40;17.23;;;1.00;99.90;;;;;;5072000;28;20470;-72
2021/01/03 05:33:54;;;;;;;22.60;15.63;;;1.00;99.90;;;;;;5072424;28;20459;-72
2021/01/03 05:36:28;;;;;;;23.00;16.20;;;1.00;99.90;;;;;;5071900;28;20529;-72
2021/01/03 05:38:54;;;;;;;27.50;18.60;;;1.00;99.90;;;;;;5072599;28;20453;-72
2021/01/03 05:41:30;;;;;;;21.80;16.17;;;1.00;99.90;;;;;;5072177;28;20486;-72
2021/01/03 05:44:09;;;;;;;24.07;16.87;;;0.90;99.90;;;;;;5072568;28;20432;-72
2021/01/03 05:46:41;;;;;;;24.93;17.23;;;0.90;99.90;;;;;;5071260;28;20451;-72
2021/01/03 05:49:13;;;;;;;28.43;17.83;;;0.90;99.90;;;;;;5071648;28;20447;-70
2021/01/03 05:51:42;;;;;;;25.37;17.30;;;0.80;99.90;;;;;;5070763;28;20467;-70
2021/01/03 05:54:13;;;;;;;23.70;15.87;;;0.90;99.90;;;;;;5071288;28;21244;-70
2021/01/03 05:56:41;;;;;;;23.90;17.73;;;0.80;99.90;;;;;;5070445;28;20453;-70
2021/01/03 05:59:14;;;;;;;25.83;17.60;;;0.80;99.90;;;;;;5070988;28;20816;-71
2021/01/03 06:01:40;;;;;;;27.37;18.10;;;0.90;99.90;;;;;;5070834;28;20461;-71
2021/01/03 06:04:10;;;;;;;28.67;17.20;;;0.80;99.90;;;;;;5070738;28;20529;-71
2021/01/03 06:07:03;;;;;;;28.67;18.83;;;0.80;99.90;;;;;;5070145;28;20861;-71
2021/01/03 06:09:36;;;;;;;23.60;16.67;;;0.90;99.90;;;;;;5070707;28;20955;-71
2021/01/03 06:12:06;;;;;;;22.37;16.10;;;0.90;99.90;;;;;;5070648;28;20546;-71
2021/01/03 06:14:37;;;;;;;24.00;17.03;;;0.90;99.90;;;;;;5070549;28;20464;-71
2021/01/03 06:17:17;;;;;;;26.30;18.20;;;0.90;99.90;;;;;;5069726;28;20564;-71
2021/01/03 06:19:48;;;;;;;26.00;16.43;;;0.90;99.90;;;;;;5063420;28;20868;-71
2021/01/03 06:22:35;;;;;;;28.07;18.20;;;0.90;99.90;;;;;;5069033;28;20474;-71
2021/01/03 06:25:06;;;;;;;22.43;16.57;;;0.90;99.90;;;;;;5070295;28;20457;-71
2021/01/03 06:27:34;;;;;;;23.77;17.23;;;0.90;99.90;;;;;;5068937;28;20530;-71
2021/01/03 06:30:07;;;;;;;23.03;16.70;;;0.90;99.90;;;;;;5070426;28;20523;-71
2021/01/03 06:33:05;;;;;;;28.50;17.80;;;0.90;99.90;;;;;;5070581;28;20442;-71
2021/01/03 06:35:33;;;;;;;24.47;16.77;;;0.90;99.90;;;;;;5070234;28;20519;-71
2021/01/03 06:38:07;;;;;;;27.53;18.20;;;0.90;99.90;;;;;;5069683;28;20526;-71
2021/01/03 06:40:37;;;;;;;29.40;17.67;;;0.90;99.90;;;;;;5070228;28;20486;-70
2021/01/03 06:43:35;;;;;;;27.03;17.60;;;0.90;99.90;;;;;;5070399;28;20530;-71
2021/01/03 06:46:58;;;;;;;22.70;16.40;;;0.90;99.90;;;;;;5069764;28;20548;-71
2021/01/03 06:49:53;;;;;;;27.13;16.53;;;0.90;99.90;;;;;;4977223;28;21138;-71
2021/01/03 06:52:46;;;;;;;25.57;17.50;;;1.00;99.90;;;;;;5070194;28;20883;-71
2021/01/03 06:55:32;;;;;;;24.83;17.20;;;1.00;99.90;;;;;;5069272;28;20494;-70
2021/01/03 06:58:35;;;;;;;23.83;15.83;;;1.00;99.90;;;;;;5018515;28;20534;-71
2021/01/03 07:01:07;;;;;;;21.17;15.90;;;1.00;99.90;;;;;;5065733;28;20491;-71
2021/01/03 07:03:35;;;;;;;29.07;17.17;;;1.00;99.90;;;;;;5069869;28;20447;-71
2021/01/03 07:06:04;;;;;;;24.77;17.50;;;1.00;99.90;;;;;;5068948;28;20447;-71
2021/01/03 07:08:38;;;;;;;25.90;19.37;;;1.00;99.90;;;;;;5069491;28;20504;-71
2021/01/03 07:11:41;;;;;;;24.90;17.93;;;1.00;99.90;;;;;;5069620;28;20490;-71
2021/01/03 07:14:10;;;;;;;26.67;17.57;;;1.10;99.90;;;;;;5069720;28;20458;-71
2021/01/03 07:16:54;;;;;;;23.50;17.17;;;1.00;99.90;;;;;;5068806;28;20446;-71
2021/01/03 07:19:43;;;;;;;27.37;17.97;;;1.10;99.90;;;;;;5069177;28;20457;-71
2021/01/03 07:22:15;;;;;;;26.40;16.80;;;1.10;99.90;;;;;;5069383;28;20475;-71
2021/01/03 07:25:07;;;;;;;26.13;17.53;;;1.10;99.90;;;;;;5069288;28;20530;-71
2021/01/03 07:27:36;;;;;;;24.50;16.83;;;1.10;99.90;;;;;;5068326;28;20542;-70
2021/01/03 07:30:31;;;;;;;27.73;18.30;;;1.20;99.90;;;;;;5069171;28;20915;-71
2021/01/03 07:33:19;;;;;;;25.67;17.63;;;1.30;99.90;;;;;;5070040;28;20439;-71
2021/01/03 07:35:47;;;;;;;26.63;16.70;;;1.30;99.90;;;;;;5068916;28;20459;-73
2021/01/03 07:38:27;;;;;;;20.20;15.60;;;1.40;99.90;;;;;;5069661;28;20880;-71
2021/01/03 07:40:58;;;;;;;24.70;16.93;;;1.40;99.90;;;;;;5069906;28;20493;-73
2021/01/03 07:43:25;;;;;;;20.90;15.33;;;1.40;99.90;;;;;;5070411;28;20953;-71
2021/01/03 07:45:52;;;;;;;23.17;16.00;;;1.40;99.90;;;;;;5069418;28;20451;-71
2021/01/03 07:48:34;;;;;;;24.00;16.27;;;1.40;99.90;;;;;;5069680;28;20496;-71
2021/01/03 07:51:02;;;;;;;23.70;16.23;;;1.40;99.90;;;;;;5069381;28;20824;-71
2021/01/03 07:53:34;;;;;;;25.33;17.53;;;1.40;99.90;;;;;;5069385;28;20534;-71
2021/01/03 07:56:19;;;;;;;24.90;16.93;;;1.40;99.90;;;;;;5068364;28;20462;-71
2021/01/03 07:58:50;;;;;;;23.43;16.90;;;1.40;99.90;;;;;;5069270;28;20450;-71
2021/01/03 08:01:18;;;;;;;24.47;16.70;;;1.40;99.90;;;;;;5069234;28;20493;-71
2021/01/03 08:03:44;;;;;;;23.70;15.90;;;1.50;99.90;;;;;;5069511;28;20448;-71
2021/01/03 08:06:12;;;;;;;24.27;16.60;;;1.50;99.90;;;;;;5068899;28;20553;-73
2021/01/03 08:08:39;;;;;;;26.03;17.33;;;1.50;99.90;;;;;;5063903;28;20543;-73
2021/01/03 08:11:16;;;;;;;24.53;17.27;;;1.60;99.90;;;;;;5068076;28;20459;-73
2021/01/03 08:13:45;;;;;;;24.17;16.47;;;1.60;99.90;;;;;;5069328;28;20443;-72
2021/01/03 08:16:19;;;;;;;21.43;15.17;;;1.60;99.90;;;;;;5067954;28;20950;-72
2021/01/03 08:18:55;;;;;;;24.37;16.40;;;1.70;99.90;;;;;;5069033;28;20535;-72
2021/01/03 08:21:22;;;;;;;22.20;15.97;;;1.60;99.90;;;;;;5068237;28;20893;-71
2021/01/03 08:23:49;;;;;;;28.60;17.00;;;1.60;99.90;;;;;;5068270;28;20443;-72
2021/01/03 08:26:20;;;;;;;27.27;17.40;;;1.70;99.90;;;;;;5067827;28;20939;-72
2021/01/03 08:28:57;;;;;;;26.60;16.57;;;1.60;99.90;;;;;;5068479;28;20818;-72
2021/01/03 08:31:24;;;;;;;27.63;17.30;;;1.60;99.90;;;;;;5068396;28;20892;-72
2021/01/03 08:33:53;;;;;;;27.60;18.00;;;1.60;99.90;;;;;;5068147;28;20458;-72
2021/01/03 08:36:25;;;;;;;26.33;16.07;;;1.70;99.90;;;;;;5067780;28;20442;-72
2021/01/03 08:38:52;;;;;;;23.87;16.90;;;1.70;99.90;;;;;;5068554;28;20467;-73
2021/01/03 08:41:22;;;;;;;25.37;17.17;;;1.70;99.90;;;;;;5068346;28;20487;-72
2021/01/03 08:43:48;;;;;;;25.33;16.80;;;1.80;99.90;;;;;;5068055;28;20545;-72
2021/01/03 08:46:23;;;;;;;24.27;17.03;;;1.80;99.90;;;;;;5066321;28;20501;-73
2021/01/03 08:48:56;;;;;;;23.50;16.80;;;1.80;99.90;;;;;;5067679;28;20495;-73
2021/01/03 08:51:23;;;;;;;22.20;15.70;;;1.80;99.90;;;;;;5070803;28;20459;-73
2021/01/03 08:53:56;;;;;;;26.67;17.63;;;1.80;99.90;;;;;;5072633;28;20544;-73
2021/01/03 08:56:27;;;;;;;24.80;16.90;;;1.80;99.90;;;;;;5071866;28;20482;-73
2021/01/03 08:58:54;;;;;;;22.80;16.43;;;1.90;99.90;;;;;;5072385;28;20552;-73
2021/01/03 09:01:23;;;;;;;24.43;16.00;;;1.90;99.90;;;;;;5072603;28;20482;-73
2021/01/03 09:03:54;;;;;;;27.37;17.60;;;1.90;99.90;;;;;;5072618;28;20530;-73
2021/01/03 09:06:20;;;;;;;24.47;16.10;;;1.90;99.90;;;;;;5071667;28;20447;-72
2021/01/03 09:08:49;;;;;;;22.50;16.77;;;1.90;99.90;;;;;;5066290;28;20461;-73
2021/01/03 09:11:22;;;;;;;22.67;15.90;;;1.90;99.90;;;;;;5068395;28;20939;-72
2021/01/03 09:13:53;;;;;;;25.23;17.67;;;1.90;99.90;;;;;;5072349;28;20518;-72
2021/01/03 09:16:31;;;;;;;21.07;15.03;;;1.90;99.90;;;;;;5071382;28;20542;-70
2021/01/03 09:19:11;;;;;;;20.53;15.27;;;1.90;99.90;;;;;;5064561;28;20940;-70
2021/01/03 09:21:50;;;;;;;22.77;15.00;;;1.90;99.90;;;;;;5071952;28;20582;-71
2021/01/03 09:24:23;;;;;;;23.97;15.07;;;1.90;99.90;;;;;;5072173;28;20542;-70
2021/01/03 09:26:50;;;;;;;21.87;14.93;;;1.90;99.90;;;;;;5071448;28;20438;-71
2021/01/03 09:29:21;;;;;;;20.80;15.33;;;1.90;99.90;;;;;;5071756;28;20460;-71
2021/01/03 09:31:59;;;;;;;22.03;16.27;;;1.90;99.90;;;;;;5071837;28;20849;-72
2021/01/03 09:34:39;;;;;;;21.83;14.70;;;1.90;99.90;;;;;;5072000;28;20462;-72
2021/01/03 09:37:14;;;;;;;21.50;15.80;;;2.00;99.90;;;;;;5071418;28;20529;-71
2021/01/03 09:39:48;;;;;;;23.10;15.60;;;2.00;99.90;;;;;;5063934;28;20463;-72
2021/01/03 09:42:40;;;;;;;19.87;14.27;;;2.00;99.90;;;;;;5070429;28;20844;-73
2021/01/03 09:45:22;;;;;;;17.67;14.80;;;2.10;99.90;;;;;;5055058;28;20537;-74
2021/01/03 09:47:49;;;;;;;17.77;12.83;;;2.10;99.90;;;;;;5070285;28;20514;-75
2021/01/03 09:50:23;;;;;;;18.73;14.03;;;2.10;99.90;;;;;;5070912;28;20897;-75
2021/01/03 09:52:55;;;;;;;22.93;15.70;;;2.10;99.90;;;;;;5070979;28;20521;-74
2021/01/03 09:55:26;;;;;;;20.50;14.60;;;2.10;99.90;;;;;;5071093;28;20862;-74
2021/01/03 09:58:03;;;;;;;19.00;14.50;;;2.10;99.90;;;;;;5069392;28;20521;-73
2021/01/03 10:00:52;;;;;;;21.70;17.85;;;2.10;99.90;;;;;;5069242;28;20531;-73
2021/01/03 10:03:21;;;;;;;22.10;15.77;;;2.10;99.90;;;;;;5070794;28;20288;-72
2021/01/03 10:05:48;;;;;;;21.87;15.27;;;2.20;99.90;;;;;;5070091;28;20928;-72
2021/01/03 10:08:20;;;;;;;19.13;15.17;;;2.20;99.90;;;;;;5070937;28;20538;-72
2021/01/03 10:10:49;;;;;;;17.47;12.97;;;2.20;99.90;;;;;;5070843;28;20459;-72
2021/01/03 10:13:17;;;;;;;17.20;12.77;;;2.20;99.90;;;;;;5070839;28;20447;-72
2021/01/03 10:15:49;;;;;;;17.07;13.30;;;2.20;99.90;;;;;;5069922;28;20534;-73
2021/01/03 10:18:32;;;;;;;17.60;13.33;;;2.20;99.90;;;;;;5070493;28;20537;-72
2021/01/03 10:20:59;;;;;;;19.80;13.57;;;2.20;99.90;;;;;;5071071;28;20526;-72
2021/01/03 10:23:34;;;;;;;21.50;14.90;;;2.30;99.90;;;;;;5070973;28;20458;-73
2021/01/03 10:26:04;;;;;;;18.83;14.50;;;2.30;99.90;;;;;;5070116;28;20537;-73
2021/01/03 10:28:32;;;;;;;19.27;14.07;;;2.40;99.90;;;;;;5069681;28;20444;-74
2021/01/03 10:30:58;;;;;;;16.90;13.90;;;2.40;99.90;;;;;;5070615;28;20563;-74
2021/01/03 10:33:25;;;;;;;22.90;15.20;;;2.40;99.90;;;;;;5070426;28;20570;-74
2021/01/03 10:35:51;;;;;;;20.30;15.70;;;2.50;99.90;;;;;;5069782;28;20534;-74
2021/01/03 10:38:17;;;;;;;19.63;14.80;;;2.60;99.90;;;;;;5070274;28;20440;-73
2021/01/03 10:40:44;;;;;;;19.40;14.80;;;2.60;99.90;;;;;;5069973;28;20581;-74
2021/01/03 10:43:11;;;;;;;22.90;15.03;;;2.70;99.90;;;;;;5070446;28;20526;-73
2021/01/03 10:45:37;;;;;;;25.50;17.77;;;2.70;99.90;;;;;;5070785;28;20525;-74
2021/01/03 10:48:05;;;;;;;25.77;17.83;;;2.70;99.90;;;;;;5070223;28;20475;-74
2021/01/03 10:50:31;;;;;;;23.13;15.63;;;2.70;99.90;;;;;;5071703;28;20518;-74
2021/01/03 10:52:58;;;;;;;22.13;16.57;;;2.70;99.90;;;;;;5071003;28;20527;-73
2021/01/03 10:55:24;;;;;;;24.70;17.83;;;2.70;99.90;;;;;;5070220;28;20471;-73
2021/01/03 10:57:51;;;;;;;21.50;15.93;;;2.70;99.90;;;;;;5061216;28;20447;-73
2021/01/03 11:00:20;;;;;;;22.63;17.30;;;2.70;99.90;;;;;;5064601;28;20479;-73
2021/01/03 11:02:46;;;;;;;23.30;15.67;;;2.60;99.90;;;;;;5063143;28;20799;-74
2021/01/03 11:05:13;;;;;;;22.07;16.70;;;2.70;99.90;;;;;;5062023;28;20454;-74
2021/01/03 11:07:40;;;;;;;21.47;17.00;;;2.60;99.90;;;;;;5069254;28;20557;-73
2021/01/03 11:10:08;;;;;;;20.80;14.97;;;2.60;99.90;;;;;;5071630;28;21108;-73
2021/01/03 11:12:35;;;;;;;24.60;17.37;;;2.70;99.90;;;;;;5069125;28;20451;-73
2021/01/03 11:15:01;;;;;;;20.63;16.97;;;2.80;99.90;;;;;;5069604;28;20614;-73
2021/01/03 11:17:29;;;;;;;25.40;17.20;;;2.80;99.90;;;;;;5068047;28;20531;-73
2021/01/03 11:19:55;;;;;;;21.80;16.23;;;2.80;99.90;;;;;;5068763;28;20885;-74
2021/01/03 11:22:21;;;;;;;22.40;17.37;;;2.90;99.90;;;;;;5069498;28;20472;-73
2021/01/03 11:24:48;;;;;;;28.00;20.57;;;2.80;99.90;;;;;;5069277;28;20475;-73
2021/01/03 11:27:16;;;;;;;32.90;28.40;;;2.90;99.90;;;;;;5068297;28;20948;-73
2021/01/03 11:29:43;;;;;;;28.07;23.63;;;2.90;99.90;;;;;;5069294;28;20212;-73
2021/01/03 11:32:14;;;;;;;23.87;18.07;;;2.90;99.90;;;;;;5069249;28;20475;-73
2021/01/03 11:34:41;;;;;;;26.30;21.13;;;2.90;99.90;;;;;;5068764;28;20457;-72
2021/01/03 11:37:10;;;;;;;23.93;17.17;;;2.90;99.90;;;;;;5068154;28;20440;-73
2021/01/03 11:39:38;;;;;;;25.83;18.50;;;2.90;99.90;;;;;;5069204;28;20446;-73
2021/01/03 11:42:08;;;;;;;35.27;27.20;;;2.90;99.90;;;;;;5067403;28;20519;-72
2021/01/03 11:44:35;;;;;;;66.43;36.90;;;2.90;99.90;;;;;;5068670;28;20457;-73
2021/01/03 11:47:03;;;;;;;25.27;18.70;;;3.00;99.90;;;;;;5068002;28;20526;-72
2021/01/03 11:49:32;;;;;;;19.83;14.43;;;3.00;99.90;;;;;;5068848;28;20954;-72
2021/01/03 11:52:00;;;;;;;27.67;18.37;;;3.00;99.90;;;;;;5068579;28;20517;-73
2021/01/03 11:54:26;;;;;;;21.80;15.73;;;3.00;99.90;;;;;;5068821;28;20485;-73
2021/01/03 11:56:54;;;;;;;21.67;16.00;;;3.00;99.90;;;;;;5067822;28;20443;-73
2021/01/03 11:59:21;;;;;;;23.67;17.00;;;3.00;99.90;;;;;;5068828;28;20454;-72
2021/01/03 12:01:48;;;;;;;25.77;16.80;;;3.00;99.90;;;;;;5068926;28;20574;-73
2021/01/03 12:04:14;;;;;;;25.20;17.83;;;3.00;99.90;;;;;;5068627;28;20534;-72
2021/01/03 12:06:40;;;;;;;25.00;21.23;;;3.00;99.90;;;;;;5067889;28;20498;-73
2021/01/03 12:09:08;;;;;;;24.97;17.00;;;3.00;99.90;;;;;;5068682;28;20439;-72
2021/01/03 12:11:34;;;;;;;29.10;20.80;;;3.10;99.90;;;;;;5068730;28;20462;-73
2021/01/03 12:14:00;;;;;;;27.60;19.87;;;3.20;99.90;;;;;;5068719;28;20457;-73
2021/01/03 12:16:29;;;;;;;24.20;18.03;;;3.30;99.90;;;;;;5067729;28;20454;-73
2021/01/03 12:18:56;;;;;;;23.30;16.97;;;3.40;99.90;;;;;;5068562;28;20451;-73
2021/01/03 12:21:24;;;;;;;32.60;22.63;;;3.50;99.90;;;;;;5062276;28;20480;-73
2021/01/03 12:23:51;;;;;;;24.67;17.80;;;3.60;99.90;;;;;;5060168;28;20451;-72
2021/01/03 12:26:19;;;;;;;23.77;17.33;;;3.60;99.90;;;;;;5066893;28;20523;-72
2021/01/03 12:28:45;;;;;;;28.40;20.10;;;3.60;99.90;;;;;;5070304;28;20535;-73
2021/01/03 12:31:14;;;;;;;18.13;14.90;;;3.60;99.90;;;;;;5069341;28;20467;-72
2021/01/03 12:33:40;;;;;;;34.67;23.17;;;3.70;99.90;;;;;;5067448;28;20454;-74
2021/01/03 12:36:07;;;;;;;22.53;16.97;;;3.80;99.90;;;;;;5065006;28;20465;-73
2021/01/03 12:38:35;;;;;;;20.43;16.40;;;3.80;99.90;;;;;;5067255;28;20457;-73
2021/01/03 12:41:01;;;;;;;22.00;15.33;;;3.80;99.90;;;;;;5075300;28;20576;-73
2021/01/03 12:43:29;;;;;;;20.27;15.30;;;3.80;99.90;;;;;;5075063;28;20473;-73
2021/01/03 12:45:55;;;;;;;24.80;17.87;;;3.80;99.90;;;;;;5071160;28;20530;-73
2021/01/03 12:48:22;;;;;;;19.93;14.97;;;3.80;99.90;;;;;;5071526;28;20534;-73
2021/01/03 12:50:48;;;;;;;20.80;15.60;;;3.80;99.90;;;;;;5069480;28;20840;-75
2021/01/03 12:53:15;;;;;;;40.30;25.67;;;3.80;99.90;;;;;;5070622;28;20566;-75
2021/01/03 12:55:41;;;;;;;36.23;23.07;;;3.80;99.90;;;;;;5069487;28;20443;-74